Airfield :
LOGIN :

Register | Disclaimer

   EN    FR    IT 

 










Legend :    VFR   Marginal VFR   IFR   Intensive IFR   Very Intensive IFR
Visi :
Ceiling :
>= 8 km
>= 3000ft
5 to 8 km
1000 to 3000 ft
1500m to 5 km
500 to 1000 ft
800 to 1500m
200 to 500 ft
< 800m
< 200 ft
Symbols :   Thunderstorms  Fog  Heavy snow  Heavy precipitations  Wind > 20 kt
SIGMETs :     Misc.  Thunderstorms  Icing  Turbulence  Mountain Waves  Volcanic Ashes






- Airport Elevation : 257 ft
- IATA code : MAN


EGCC - Manchester

CURRENT METAR :
  • 200520Z AUTO 17007KT 110V250 9999 OVC010 12/11 Q0996

EXPIRED METARs :
  • 200450Z AUTO 17007KT 120V220 9999 BKN011 OVC016 12/10 Q0996 TEMPO RA
  • 200420Z AUTO 15006KT 090V240 9999 BKN013 OVC022 11/10 Q0996 TEMPO RA
  • 200350Z AUTO 16007KT 110V210 9999 SCT016 BKN022 OVC038 11/09 Q0997 TEMPO RA BKN010
  • 200320Z AUTO 15008KT 110V220 9999 SCT024/// OVC037/// //////TCU 11/09 Q0997 TEMPO RA BKN010
  • 200250Z AUTO 14008KT 100V220 9999 -RA OVC044/// //////TCU 11/09 Q0997 TEMPO RA

TAF TAF EGCC
Valid from the 20 at 00:00 until the 21 at 06:00 UTC


192300Z 2000/2106 16008KT 9999 FEW045
TEMPO 2001/2006 7000 RA BKN010
PROB30
TEMPO 2002/2006 4000 +RA RADZ BKN004
TEMPO 2006/2009 BKN014
PROB30
TEMPO 2012/2018 17015G25KT 4000 +SHRA
PROB30
TEMPO 2021/2106 7000 SHRA BKN012
ATIS : +44 161 499 2324



MET'MAP, your aeronautical weather chart ! - Copyright ORBIFLY December 2007 - Disclaimer

ORBIFLY MET'MAP TEAM :

Programming & Development : Alexandra Zaïnal
Concept & original design : Baudouin d'Aumeries
Assistance for programming : Marc-Olivier Méhu
Technical & hardware support : Manuel Goepfert

Contact : metmap@orbifly.com




SOURCES & CREDITS :

   NOAA